Time;durP1;ratioP1;P1;durP2;ratioP2;P2;SDS_P1;SDS_P2;PMS_P1;PMS_P2;Temp;Humidity;BMP_temperature;BMP_pressure;BME280_temperature;BME280_humidity;BME280_pressure;Samples;Min_cycle;Max_cycle;Signal;HPM_P1;HPM_P2
2023/01/06 00:01:11;;;;;;;11.90;8.00;;;9.80;99.90;;;;;;4864253;29;20270;-72
2023/01/06 00:03:38;;;;;;;12.73;8.83;;;9.70;99.90;;;;;;4857521;29;20226;-71
2023/01/06 00:06:06;;;;;;;14.10;9.73;;;9.70;99.90;;;;;;4857540;29;20206;-70
2023/01/06 00:08:34;;;;;;;13.07;9.93;;;9.70;99.90;;;;;;4857663;29;20263;-73
2023/01/06 00:11:06;;;;;;;17.73;11.37;;;9.70;1.00;;;;;;4842072;29;20667;-73
2023/01/06 00:13:33;;;;;;;17.90;12.50;;;9.70;1.00;;;;;;4858800;29;20301;-72
2023/01/06 00:16:08;;;;;;;16.07;12.60;;;9.70;1.00;;;;;;4857567;29;20671;-74
2023/01/06 00:18:35;;;;;;;18.33;13.00;;;9.70;1.00;;;;;;4859240;29;20201;-73
2023/01/06 00:21:03;;;;;;;18.00;13.40;;;9.70;1.00;;;;;;4857465;29;20286;-71
2023/01/06 00:23:31;;;;;;;19.53;12.93;;;9.70;1.00;;;;;;4857685;29;20202;-72
2023/01/06 00:25:58;;;;;;;16.13;13.13;;;9.70;1.00;;;;;;4857447;29;20671;-73
2023/01/06 00:28:25;;;;;;;19.67;16.67;;;9.70;1.00;;;;;;4859032;29;20212;-73
2023/01/06 00:30:53;;;;;;;16.17;12.40;;;9.70;1.00;;;;;;4855556;29;20784;-73
2023/01/06 00:33:20;;;;;;;17.60;12.63;;;9.80;99.90;;;;;;4857142;29;20554;-73
2023/01/06 00:35:47;;;;;;;19.87;13.80;;;9.70;99.90;;;;;;4855703;29;20301;-73
2023/01/06 00:38:14;;;;;;;17.33;13.20;;;9.70;99.90;;;;;;4836671;29;20217;-71
2023/01/06 00:40:41;;;;;;;25.37;14.97;;;9.80;1.00;;;;;;4855603;29;20235;-73
2023/01/06 00:43:08;;;;;;;21.93;14.73;;;9.70;1.00;;;;;;4856390;29;20199;-71
2023/01/06 00:45:35;;;;;;;21.63;14.83;;;9.80;1.00;;;;;;4856145;29;20234;-71
2023/01/06 00:48:02;;;;;;;24.60;15.03;;;9.80;99.90;;;;;;4857852;29;21100;-71
2023/01/06 00:50:29;;;;;;;21.27;14.90;;;9.90;99.90;;;;;;4856827;29;20530;-71
2023/01/06 00:52:56;;;;;;;20.17;14.83;;;9.80;99.90;;;;;;4857072;29;20297;-71
2023/01/06 00:55:23;;;;;;;21.87;15.10;;;9.80;99.90;;;;;;4861356;29;20210;-72
2023/01/06 00:57:51;;;;;;;20.47;14.43;;;9.90;1.00;;;;;;4871366;29;20218;-72
2023/01/06 01:00:19;;;;;;;19.23;14.07;;;10.00;1.00;;;;;;4856661;29;20245;-75
2023/01/06 01:02:46;;;;;;;19.90;12.43;;;10.00;1.00;;;;;;4850825;29;20237;-72
2023/01/06 01:05:13;;;;;;;14.10;11.30;;;10.00;99.90;;;;;;4856234;29;20689;-72
2023/01/06 01:07:41;;;;;;;14.47;11.33;;;10.00;99.90;;;;;;4850183;29;20225;-71
2023/01/06 01:10:08;;;;;;;14.83;10.33;;;10.10;99.90;;;;;;4855668;29;20652;-72
2023/01/06 01:12:36;;;;;;;15.90;9.93;;;10.10;33.20;;;;;;4856547;29;20254;-72
2023/01/06 01:15:04;;;;;;;11.83;8.20;;;10.10;1.00;;;;;;4863068;29;20201;-72
2023/01/06 01:17:31;;;;;;;8.60;6.80;;;10.10;1.00;;;;;;4853795;29;20189;-71
2023/01/06 01:19:59;;;;;;;10.27;6.00;;;10.10;1.00;;;;;;4857711;29;20209;-72
2023/01/06 01:22:29;;;;;;;10.17;5.83;;;10.10;1.00;;;;;;4848588;29;20218;-72
2023/01/06 01:24:56;;;;;;;9.73;5.30;;;10.10;1.00;;;;;;4858249;29;20185;-74
2023/01/06 01:27:24;;;;;;;8.53;4.23;;;10.10;1.00;;;;;;4857919;29;20210;-71
2023/01/06 01:29:51;;;;;;;9.97;4.20;;;10.20;99.90;;;;;;4849395;29;20226;-71
2023/01/06 01:32:18;;;;;;;7.50;3.30;;;10.20;99.90;;;;;;4848208;29;20242;-72
2023/01/06 01:34:45;;;;;;;7.10;3.30;;;10.20;99.90;;;;;;4854696;29;20198;-71
2023/01/06 01:37:13;;;;;;;8.33;3.30;;;10.20;99.90;;;;;;4848634;29;20229;-72
2023/01/06 01:39:41;;;;;;;5.90;3.40;;;10.20;99.90;;;;;;4854357;29;20210;-71
2023/01/06 01:42:16;;;;;;;4.53;3.33;;;10.10;99.90;;;;;;4846494;29;20788;-72
2023/01/06 01:45:02;;;;;;;6.23;3.20;;;10.10;99.90;;;;;;4847240;29;20202;-73
2023/01/06 01:47:41;;;;;;;6.53;3.20;;;10.20;99.90;;;;;;4862318;29;20206;-71
2023/01/06 01:50:35;;;;;;;11.87;3.00;;;10.20;99.90;;;;;;4857196;29;20632;-71
2023/01/06 01:53:11;;;;;;;7.67;3.00;;;10.20;99.90;;;;;;4845632;29;20214;-71
2023/01/06 01:55:38;;;;;;;8.63;3.17;;;10.20;99.90;;;;;;4856726;29;20220;-72
2023/01/06 01:58:11;;;;;;;4.80;3.30;;;10.20;99.90;;;;;;4849712;29;20262;-71
2023/01/06 02:00:41;;;;;;;4.67;3.03;;;10.20;99.90;;;;;;4856280;29;20320;-71
2023/01/06 02:03:09;;;;;;;7.33;2.83;;;10.20;99.90;;;;;;4848227;29;20304;-73
2023/01/06 02:05:39;;;;;;;6.13;3.20;;;10.20;99.90;;;;;;4854514;29;20553;-71
2023/01/06 02:08:20;;;;;;;6.17;2.27;;;10.20;99.90;;;;;;4856374;29;20198;-71
2023/01/06 02:10:47;;;;;;;4.70;2.47;;;10.20;99.90;;;;;;4851137;29;20745;-70
2023/01/06 02:13:14;;;;;;;5.90;2.30;;;10.20;99.90;;;;;;4855867;29;20258;-71
2023/01/06 02:15:42;;;;;;;5.27;2.60;;;10.20;99.90;;;;;;4862774;29;20210;-72
2023/01/06 02:18:15;;;;;;;4.60;2.60;;;10.20;99.90;;;;;;4870438;29;20241;-72
2023/01/06 02:21:19;;;;;;;8.27;2.70;;;10.30;99.90;;;;;;4849422;29;20218;-74
2023/01/06 02:24:06;;;;;;;3.43;2.03;;;10.20;99.90;;;;;;4854071;29;20310;-70
2023/01/06 02:26:44;;;;;;;5.53;2.13;;;10.20;99.90;;;;;;4869119;29;21523;-71
2023/01/06 02:29:11;;;;;;;3.90;2.20;;;10.20;99.90;;;;;;4846111;29;20201;-71
2023/01/06 02:32:07;;;;;;;5.47;2.07;;;10.20;99.90;;;;;;4849284;29;20611;-71
2023/01/06 02:34:48;;;;;;;6.40;2.30;;;10.20;99.90;;;;;;4850409;29;20210;-72
2023/01/06 02:37:34;;;;;;;5.93;2.20;;;10.20;99.90;;;;;;4856097;29;20201;-73
2023/01/06 02:40:32;;;;;;;5.83;1.83;;;10.20;99.90;;;;;;4839536;29;20206;-73
2023/01/06 02:43:12;;;;;;;3.03;1.70;;;10.30;99.90;;;;;;4840226;29;20218;-73
2023/01/06 02:45:48;;;;;;;3.70;1.70;;;10.30;99.90;;;;;;4854170;29;20680;-73
2023/01/06 02:48:28;;;;;;;6.30;2.40;;;10.30;99.90;;;;;;4853339;29;20205;-72
2023/01/06 02:51:12;;;;;;;6.20;1.87;;;10.30;86.10;;;;;;4848115;29;20628;-72
2023/01/06 02:53:58;;;;;;;2.57;1.53;;;10.30;72.30;;;;;;4847862;29;20198;-73
2023/01/06 02:56:33;;;;;;;7.33;1.90;;;10.30;40.20;;;;;;4839374;29;20617;-70
2023/01/06 02:59:15;;;;;;;9.30;2.10;;;10.40;27.70;;;;;;4846857;29;20242;-70
2023/01/06 03:01:44;;;;;;;3.77;1.47;;;10.30;27.00;;;;;;4855048;29;20230;-71
2023/01/06 03:04:21;;;;;;;3.90;1.90;;;10.30;16.20;;;;;;4856651;29;20213;-72
2023/01/06 03:06:50;;;;;;;6.43;1.87;;;10.30;17.50;;;;;;4857547;29;20190;-73
2023/01/06 03:09:21;;;;;;;5.10;1.70;;;10.40;14.40;;;;;;4856234;29;20205;-72
2023/01/06 03:11:50;;;;;;;7.23;2.63;;;10.30;15.00;;;;;;4861428;29;20202;-71
2023/01/06 03:14:31;;;;;;;4.23;2.00;;;10.30;8.30;;;;;;4872396;29;20214;-71
2023/01/06 03:16:59;;;;;;;4.33;1.70;;;10.30;19.90;;;;;;4851428;29;20206;-71
2023/01/06 03:19:30;;;;;;;3.80;1.70;;;10.30;1.00;;;;;;4852348;29;20233;-71
2023/01/06 03:22:00;;;;;;;4.20;1.90;;;10.40;1.00;;;;;;4871605;29;20233;-75
2023/01/06 03:24:28;;;;;;;2.73;1.30;;;10.30;1.00;;;;;;4857036;29;20206;-71
2023/01/06 03:26:57;;;;;;;3.83;1.50;;;10.30;1.00;;;;;;4855938;29;20202;-71
2023/01/06 03:29:25;;;;;;;4.07;1.80;;;10.40;1.00;;;;;;4857453;29;20244;-71
2023/01/06 03:32:03;;;;;;;5.60;1.97;;;10.40;1.00;;;;;;4870721;29;20225;-71
2023/01/06 03:34:49;;;;;;;4.60;1.47;;;10.50;1.00;;;;;;4854049;29;20204;-71
2023/01/06 03:37:37;;;;;;;2.77;1.37;;;10.40;1.00;;;;;;4859535;29;20212;-71
2023/01/06 03:40:27;;;;;;;2.87;1.50;;;10.50;1.00;;;;;;4875084;29;20208;-71
2023/01/06 03:43:12;;;;;;;3.97;1.47;;;10.40;1.00;;;;;;4877171;29;20617;-73
2023/01/06 03:45:49;;;;;;;3.03;1.60;;;10.50;1.00;;;;;;4858418;29;20662;-75
2023/01/06 03:48:34;;;;;;;2.40;1.40;;;10.40;1.00;;;;;;4859820;29;20216;-72
2023/01/06 03:51:26;;;;;;;5.07;1.60;;;10.50;1.00;;;;;;4876578;29;20659;-71
2023/01/06 03:54:00;;;;;;;6.23;2.07;;;10.50;1.00;;;;;;4844987;29;20206;-71
2023/01/06 03:56:55;;;;;;;5.97;2.00;;;10.50;1.00;;;;;;4876803;29;20234;-72
2023/01/06 03:59:27;;;;;;;4.03;1.70;;;10.50;1.00;;;;;;4851412;29;20205;-71
2023/01/06 04:01:56;;;;;;;3.03;1.50;;;10.40;1.00;;;;;;4873605;29;20605;-74
2023/01/06 04:04:24;;;;;;;2.47;1.57;;;10.50;1.00;;;;;;4858694;29;20214;-73
2023/01/06 04:06:52;;;;;;;2.53;2.00;;;10.40;1.00;;;;;;4858547;29;20206;-71
2023/01/06 04:09:19;;;;;;;4.90;2.47;;;10.40;1.00;;;;;;4851492;29;20213;-71
2023/01/06 04:14:37;;;;;;;4.60;2.33;;;10.50;1.00;;;;;;4875972;29;20829;-71
2023/01/06 04:17:05;;;;;;;7.50;3.13;;;10.40;1.00;;;;;;4873404;29;20225;-71
2023/01/06 04:19:33;;;;;;;7.33;2.10;;;10.40;1.00;;;;;;4867312;29;20201;-71
2023/01/06 04:22:01;;;;;;;5.30;3.23;;;10.50;1.00;;;;;;4858548;29;20245;-71
2023/01/06 04:24:29;;;;;;;4.37;2.10;;;10.40;1.00;;;;;;4850981;29;20261;-76
2023/01/06 04:26:56;;;;;;;3.73;2.10;;;10.40;1.00;;;;;;4871379;29;20669;-71
2023/01/06 04:29:23;;;;;;;7.27;4.07;;;10.40;1.00;;;;;;4874494;29;20220;-74
2023/01/06 04:31:53;;;;;;;8.53;3.70;;;10.40;1.00;;;;;;4855532;29;20281;-72
2023/01/06 04:34:20;;;;;;;4.27;2.33;;;10.50;1.00;;;;;;4871010;29;20221;-71
2023/01/06 04:36:47;;;;;;;5.77;3.00;;;10.50;1.00;;;;;;4869804;29;20553;-72
2023/01/06 04:39:14;;;;;;;6.73;3.23;;;10.50;1.00;;;;;;4853929;29;20190;-84
2023/01/06 04:41:41;;;;;;;5.03;1.90;;;10.60;1.00;;;;;;4853769;29;20719;-74
2023/01/06 04:44:08;;;;;;;8.87;2.47;;;10.50;1.00;;;;;;4855502;29;20692;-74
2023/01/06 04:46:35;;;;;;;4.57;2.30;;;10.50;1.00;;;;;;4854096;29;20866;-73
2023/01/06 04:49:02;;;;;;;7.43;3.67;;;10.50;1.00;;;;;;4855567;29;20661;-74
2023/01/06 04:51:29;;;;;;;9.93;3.53;;;10.40;1.00;;;;;;4846684;29;20562;-73
2023/01/06 04:53:56;;;;;;;5.13;1.37;;;10.60;1.00;;;;;;4856942;29;20515;-73
2023/01/06 04:56:23;;;;;;;3.57;2.10;;;10.60;1.00;;;;;;4856537;29;20289;-72
2023/01/06 04:58:54;;;;;;;3.50;2.00;;;10.50;1.00;;;;;;4854992;29;20247;-71
2023/01/06 05:01:22;;;;;;;3.57;1.90;;;10.50;1.00;;;;;;4856184;29;20217;-74
2023/01/06 05:03:50;;;;;;;5.40;2.17;;;10.50;1.00;;;;;;4857188;29;20647;-70
2023/01/06 05:06:18;;;;;;;5.63;2.20;;;10.60;1.00;;;;;;4863656;29;20224;-71
2023/01/06 05:08:45;;;;;;;3.37;1.60;;;10.50;1.00;;;;;;4854948;29;20721;-72
2023/01/06 05:11:19;;;;;;;4.73;1.70;;;10.60;1.00;;;;;;4855214;29;20239;-72
2023/01/06 05:13:46;;;;;;;5.77;1.70;;;10.60;1.00;;;;;;4870637;29;20206;-72
2023/01/06 05:16:18;;;;;;;4.77;1.80;;;10.50;1.00;;;;;;4854584;29;20209;-71
2023/01/06 05:18:45;;;;;;;2.57;1.53;;;10.50;1.00;;;;;;4856191;29;20278;-71
2023/01/06 05:21:12;;;;;;;4.20;1.63;;;10.60;1.00;;;;;;4862409;29;20271;-72
2023/01/06 05:23:39;;;;;;;4.20;1.60;;;10.50;1.00;;;;;;4859294;29;20637;-82
2023/01/06 05:26:09;;;;;;;4.70;1.40;;;10.60;1.00;;;;;;4855190;29;20226;-71
2023/01/06 05:28:36;;;;;;;3.93;1.43;;;10.60;1.00;;;;;;4861215;29;20292;-71
2023/01/06 05:31:04;;;;;;;2.97;1.43;;;10.60;1.00;;;;;;4854269;29;20585;-71
2023/01/06 05:33:32;;;;;;;5.37;1.40;;;10.70;1.00;;;;;;4870811;29;21029;-74
2023/01/06 05:36:08;;;;;;;3.27;1.50;;;10.60;1.00;;;;;;4845157;29;20270;-71
2023/01/06 05:38:35;;;;;;;5.40;1.30;;;10.70;1.00;;;;;;4855387;29;20279;-72
2023/01/06 05:41:02;;;;;;;3.27;1.30;;;10.60;1.00;;;;;;4856765;29;20248;-71
2023/01/06 05:43:31;;;;;;;4.13;1.30;;;10.50;1.00;;;;;;4847900;29;20874;-71
2023/01/06 05:45:59;;;;;;;6.00;1.30;;;10.60;1.00;;;;;;4855465;29;20285;-70
2023/01/06 05:48:26;;;;;;;5.07;1.37;;;10.60;1.00;;;;;;4855010;29;20198;-73
2023/01/06 05:51:04;;;;;;;6.60;2.27;;;10.50;1.00;;;;;;4854565;29;20685;-71
2023/01/06 05:53:35;;;;;;;5.03;1.70;;;10.60;1.00;;;;;;4857620;29;20206;-72
2023/01/06 05:56:05;;;;;;;5.17;1.90;;;10.60;1.00;;;;;;4870648;29;20262;-77
2023/01/06 05:58:33;;;;;;;3.73;1.60;;;10.60;1.00;;;;;;4840243;29;20615;-70
2023/01/06 06:01:03;;;;;;;7.27;3.30;;;10.60;1.00;;;;;;4853629;29;20610;-72
2023/01/06 06:03:32;;;;;;;8.97;4.77;;;10.70;1.00;;;;;;4856357;29;20218;-70
2023/01/06 06:06:04;;;;;;;4.23;1.80;;;10.60;1.00;;;;;;4838117;29;20561;-71
2023/01/06 06:08:32;;;;;;;6.20;3.13;;;10.60;1.00;;;;;;4857220;29;20689;-71
2023/01/06 06:11:04;;;;;;;6.67;2.40;;;10.60;1.00;;;;;;4849131;29;20222;-69
2023/01/06 06:13:36;;;;;;;7.73;2.67;;;10.60;1.00;;;;;;4859738;29;20250;-69
2023/01/06 06:16:10;;;;;;;4.43;2.07;;;10.60;1.00;;;;;;4853570;29;20202;-73
2023/01/06 06:18:41;;;;;;;5.43;2.63;;;10.70;1.00;;;;;;4848342;29;20202;-68
2023/01/06 06:21:10;;;;;;;4.97;1.43;;;10.70;1.00;;;;;;4855191;29;20736;-66
2023/01/06 06:23:38;;;;;;;6.47;2.63;;;10.70;1.00;;;;;;4838867;29;20206;-71
2023/01/06 06:26:06;;;;;;;8.03;4.17;;;10.70;1.00;;;;;;4856792;29;20194;-71
2023/01/06 06:28:34;;;;;;;5.33;2.23;;;10.70;1.00;;;;;;4823809;29;20214;-66
2023/01/06 06:31:10;;;;;;;7.40;3.50;;;10.70;1.00;;;;;;4859131;29;20293;-65
2023/01/06 06:33:38;;;;;;;4.73;2.23;;;10.70;1.00;;;;;;4871490;29;20212;-66
2023/01/06 06:36:10;;;;;;;6.60;3.37;;;10.70;1.00;;;;;;4874220;29;20684;-72
2023/01/06 06:38:38;;;;;;;11.20;4.93;;;10.70;1.00;;;;;;4877409;29;20210;-68
2023/01/06 06:41:05;;;;;;;6.23;2.67;;;10.70;1.00;;;;;;4877919;29;20810;-69
2023/01/06 06:43:33;;;;;;;12.90;6.07;;;10.70;1.00;;;;;;4877767;29;20213;-70
2023/01/06 06:46:00;;;;;;;2.47;1.50;;;10.70;1.00;;;;;;4875798;29;20814;-71
2023/01/06 06:48:28;;;;;;;2.97;1.70;;;10.70;1.00;;;;;;4861571;29;20539;-68
2023/01/06 06:50:56;;;;;;;9.63;5.43;;;10.80;1.00;;;;;;4877941;29;20202;-69
2023/01/06 06:53:23;;;;;;;6.57;2.47;;;10.70;1.00;;;;;;4877276;29;20685;-68
2023/01/06 06:55:51;;;;;;;2.37;1.60;;;10.80;1.00;;;;;;4877905;29;20209;-68
2023/01/06 06:58:18;;;;;;;5.20;1.70;;;10.70;1.00;;;;;;4855393;29;20210;-66
2023/01/06 07:00:45;;;;;;;6.37;2.60;;;10.70;1.00;;;;;;4875344;29;20206;-67
2023/01/06 07:03:12;;;;;;;4.30;1.50;;;10.80;1.00;;;;;;4864331;29;20285;-67
2023/01/06 07:05:41;;;;;;;4.80;1.73;;;10.70;1.00;;;;;;4876484;29;20261;-67
2023/01/06 07:08:08;;;;;;;4.37;1.97;;;10.70;1.00;;;;;;4874790;29;20477;-67
2023/01/06 07:10:35;;;;;;;5.17;2.10;;;10.70;1.00;;;;;;4877016;29;20249;-66
2023/01/06 07:13:03;;;;;;;5.40;4.20;;;10.70;1.00;;;;;;4861053;29;20242;-66
2023/01/06 07:15:31;;;;;;;4.30;2.90;;;10.70;1.00;;;;;;4877507;29;20213;-66
2023/01/06 07:18:05;;;;;;;5.13;1.77;;;10.60;1.00;;;;;;4875991;29;20653;-73
2023/01/06 07:20:34;;;;;;;2.20;1.50;;;10.70;1.00;;;;;;4859961;29;20663;-67
2023/01/06 07:23:01;;;;;;;2.57;2.07;;;10.70;1.00;;;;;;4875725;29;20583;-67
2023/01/06 07:25:28;;;;;;;4.80;2.23;;;10.70;1.00;;;;;;4877708;29;20194;-75
2023/01/06 07:27:57;;;;;;;4.07;1.60;;;10.70;1.00;;;;;;4875879;29;20272;-67
2023/01/06 07:30:25;;;;;;;4.73;1.50;;;10.70;1.00;;;;;;4873866;29;20258;-68
2023/01/06 07:32:52;;;;;;;2.40;1.23;;;10.70;1.00;;;;;;4876017;29;20216;-69
2023/01/06 07:35:19;;;;;;;4.07;2.07;;;10.70;1.00;;;;;;4872846;29;20201;-71
2023/01/06 07:37:46;;;;;;;2.47;1.47;;;10.70;1.00;;;;;;4852212;29;20601;-66
2023/01/06 07:40:14;;;;;;;3.47;1.70;;;10.60;1.00;;;;;;4876338;29;20290;-67
2023/01/06 07:42:41;;;;;;;2.67;1.70;;;10.60;1.00;;;;;;4839774;29;20584;-67
2023/01/06 07:45:09;;;;;;;8.73;2.00;;;10.60;1.00;;;;;;4875286;29;20225;-66
2023/01/06 07:47:36;;;;;;;5.50;1.57;;;10.60;1.00;;;;;;4874882;29;20199;-67
2023/01/06 07:50:04;;;;;;;3.63;1.33;;;10.60;1.00;;;;;;4878007;29;20340;-68
2023/01/06 07:52:31;;;;;;;1.73;1.37;;;10.60;1.00;;;;;;4876922;29;20659;-68
2023/01/06 07:54:58;;;;;;;2.47;1.30;;;10.70;1.00;;;;;;4876433;29;20209;-66
2023/01/06 07:57:27;;;;;;;2.37;1.30;;;10.70;1.00;;;;;;4860283;29;20300;-67
2023/01/06 07:59:54;;;;;;;4.43;1.47;;;10.70;1.00;;;;;;4852214;29;20660;-76
2023/01/06 08:02:22;;;;;;;4.17;1.37;;;10.70;1.00;;;;;;4864003;29;20249;-66
2023/01/06 08:04:49;;;;;;;2.13;1.30;;;10.70;1.00;;;;;;4850122;29;20687;-69
2023/01/06 08:07:16;;;;;;;1.53;1.20;;;10.60;1.00;;;;;;4875215;29;20800;-71
2023/01/06 08:09:43;;;;;;;4.50;1.60;;;10.60;1.00;;;;;;4853248;29;20579;-70
2023/01/06 08:12:11;;;;;;;2.43;1.30;;;10.60;1.00;;;;;;4858661;29;20205;-69
2023/01/06 08:14:38;;;;;;;2.67;1.97;;;10.70;1.00;;;;;;4874461;29;20206;-70
2023/01/06 08:17:05;;;;;;;4.33;1.20;;;10.70;1.00;;;;;;4875848;29;20208;-69
2023/01/06 08:19:32;;;;;;;2.63;1.37;;;10.60;1.00;;;;;;4858115;29;20258;-70
2023/01/06 08:22:00;;;;;;;2.57;2.13;;;10.70;1.00;;;;;;4874698;29;20220;-69
2023/01/06 08:24:29;;;;;;;3.17;1.43;;;10.60;1.00;;;;;;4851813;29;20198;-69
2023/01/06 08:26:58;;;;;;;2.83;1.30;;;10.70;1.00;;;;;;4859715;29;20602;-69
2023/01/06 08:29:25;;;;;;;2.33;1.40;;;10.70;1.00;;;;;;4876673;29;20850;-69
2023/01/06 08:31:52;;;;;;;2.70;1.20;;;10.70;1.00;;;;;;4847977;29;20248;-70
2023/01/06 08:34:31;;;;;;;2.70;1.03;;;10.60;1.00;;;;;;4859748;29;20190;-68
2023/01/06 08:36:58;;;;;;;1.90;1.40;;;10.70;1.00;;;;;;4856654;29;20225;-68
2023/01/06 08:39:25;;;;;;;3.50;1.30;;;10.70;1.00;;;;;;4873686;29;20667;-68
2023/01/06 08:41:53;;;;;;;5.40;1.30;;;10.70;1.00;;;;;;4857955;29;20678;-71
2023/01/06 08:44:20;;;;;;;1.53;1.10;;;10.70;1.00;;;;;;4858048;29;20201;-72
2023/01/06 08:46:47;;;;;;;3.40;1.33;;;10.80;1.00;;;;;;4839858;29;20420;-71
2023/01/06 08:49:14;;;;;;;2.67;1.60;;;10.80;1.00;;;;;;4873382;29;20685;-75
2023/01/06 08:51:41;;;;;;;4.10;1.50;;;10.70;1.00;;;;;;4873914;29;20277;-73
2023/01/06 08:54:08;;;;;;;3.07;1.77;;;10.70;1.00;;;;;;4875274;29;20197;-72
2023/01/06 08:56:35;;;;;;;5.63;1.30;;;10.70;1.00;;;;;;4867805;29;20231;-72
2023/01/06 08:59:04;;;;;;;5.77;1.60;;;10.70;1.00;;;;;;4861961;29;20244;-73
2023/01/06 09:01:35;;;;;;;2.87;1.50;;;10.70;1.00;;;;;;4875783;29;20698;-72
2023/01/06 09:04:05;;;;;;;1.50;1.37;;;10.80;1.00;;;;;;4852893;29;20225;-72
2023/01/06 09:06:33;;;;;;;3.50;1.47;;;10.80;1.00;;;;;;4859246;29;20296;-72
2023/01/06 09:09:03;;;;;;;2.10;1.50;;;10.80;1.00;;;;;;4872691;29;20223;-73
2023/01/06 09:11:30;;;;;;;2.47;1.60;;;10.80;1.00;;;;;;4843491;29;20240;-72
2023/01/06 09:13:57;;;;;;;3.03;1.20;;;10.80;1.00;;;;;;4869960;29;20309;-72
2023/01/06 09:16:24;;;;;;;7.03;1.63;;;10.80;1.00;;;;;;4855404;29;20207;-72
2023/01/06 09:18:52;;;;;;;2.80;1.53;;;10.80;1.00;;;;;;4859899;29;20682;-71
2023/01/06 09:21:21;;;;;;;1.67;1.20;;;10.90;1.00;;;;;;4873506;29;20209;-72
2023/01/06 09:23:48;;;;;;;6.20;1.47;;;10.90;1.00;;;;;;4855067;29;20248;-72
2023/01/06 09:26:17;;;;;;;1.93;1.00;;;10.90;1.00;;;;;;4875072;29;20198;-71
2023/01/06 09:28:46;;;;;;;2.03;1.40;;;10.80;1.00;;;;;;4874850;29;20236;-70
2023/01/06 09:31:13;;;;;;;3.97;1.13;;;10.90;1.00;;;;;;4872928;29;20739;-72
2023/01/06 09:33:40;;;;;;;3.77;1.50;;;10.90;1.00;;;;;;4874737;29;20570;-72
2023/01/06 09:36:07;;;;;;;2.97;1.00;;;11.00;1.00;;;;;;4872273;29;20623;-71
2023/01/06 09:38:34;;;;;;;1.73;1.10;;;11.00;1.00;;;;;;4874444;29;20227;-72
2023/01/06 09:41:13;;;;;;;1.30;1.10;;;11.10;1.00;;;;;;4873052;29;20350;-71
2023/01/06 09:43:55;;;;;;;1.23;1.00;;;11.10;1.00;;;;;;4873863;29;20693;-71
2023/01/06 09:46:29;;;;;;;1.60;1.27;;;11.10;1.00;;;;;;4873055;29;20209;-71
2023/01/06 09:49:24;;;;;;;2.67;1.30;;;11.10;1.00;;;;;;4858885;29;20204;-71
2023/01/06 09:52:01;;;;;;;1.20;1.10;;;11.00;1.00;;;;;;4870924;29;20550;-71
2023/01/06 09:54:52;;;;;;;1.00;1.00;;;11.00;1.00;;;;;;4852512;29;20891;-71
2023/01/06 09:57:36;;;;;;;2.03;1.33;;;11.00;1.00;;;;;;4855686;29;20214;-71
2023/01/06 10:00:34;;;;;;;1.50;1.20;;;11.00;1.00;;;;;;4858276;29;20213;-72
2023/01/06 10:03:01;;;;;;;3.20;1.87;;;11.00;1.00;;;;;;4860959;29;20221;-71
2023/01/06 10:05:39;;;;;;;3.33;2.40;;;11.00;1.00;;;;;;4850880;29;20221;-71
2023/01/06 10:08:25;;;;;;;1.67;1.57;;;11.00;1.00;;;;;;4852059;29;20262;-72
2023/01/06 10:11:11;;;;;;;5.60;2.93;;;11.00;1.00;;;;;;4856627;29;20266;-71
2023/01/06 10:13:40;;;;;;;5.20;2.90;;;10.90;1.00;;;;;;4873070;29;20202;-70
2023/01/06 10:16:34;;;;;;;3.13;1.80;;;10.90;1.00;;;;;;4873862;29;20198;-71
2023/01/06 10:19:35;;;;;;;3.23;1.90;;;11.00;1.00;;;;;;4873882;29;20250;-71
2023/01/06 10:22:07;;;;;;;5.00;3.03;;;11.00;1.00;;;;;;4857236;29;20197;-71
2023/01/06 10:24:53;;;;;;;5.57;2.43;;;11.00;1.00;;;;;;4870240;29;20225;-71
2023/01/06 10:27:27;;;;;;;7.33;3.47;;;10.90;1.00;;;;;;4847115;29;20221;-69
2023/01/06 10:29:56;;;;;;;3.23;2.20;;;10.90;1.00;;;;;;4868345;29;20312;-68
2023/01/06 10:32:28;;;;;;;2.87;1.80;;;10.80;1.00;;;;;;4869970;29;20241;-69
2023/01/06 10:34:57;;;;;;;3.43;2.60;;;10.80;1.00;;;;;;4863735;29;20198;-69
2023/01/06 10:37:39;;;;;;;2.97;2.30;;;10.80;1.00;;;;;;4849487;29;20721;-69
2023/01/06 10:40:18;;;;;;;2.50;2.20;;;10.90;1.00;;;;;;4872700;29;20273;-69
2023/01/06 10:42:56;;;;;;;3.70;2.40;;;11.00;1.00;;;;;;4849646;29;20710;-69
2023/01/06 10:45:44;;;;;;;2.93;1.93;;;11.00;1.00;;;;;;4872290;29;20559;-69
2023/01/06 10:48:22;;;;;;;3.50;2.43;;;11.00;1.00;;;;;;4856166;29;20738;-69
2023/01/06 10:50:49;;;;;;;3.40;2.20;;;11.00;1.00;;;;;;4854589;29;20569;-69
2023/01/06 10:53:16;;;;;;;4.10;2.63;;;11.10;1.00;;;;;;4873878;29;20271;-68
2023/01/06 10:55:49;;;;;;;5.10;2.80;;;11.10;1.00;;;;;;4854588;29;20254;-70
2023/01/06 10:58:39;;;;;;;3.63;2.30;;;11.30;1.00;;;;;;4852879;29;20300;-70
2023/01/06 11:01:10;;;;;;;4.67;2.30;;;11.40;1.00;;;;;;4828807;29;21116;-70
2023/01/06 11:03:41;;;;;;;2.17;1.90;;;11.40;1.00;;;;;;4870704;29;20214;-69
2023/01/06 11:06:23;;;;;;;2.77;1.90;;;11.40;1.00;;;;;;4870056;29;20222;-70
2023/01/06 11:08:50;;;;;;;3.37;2.37;;;11.30;1.00;;;;;;4866743;29;20710;-69
2023/01/06 11:11:19;;;;;;;4.07;2.43;;;11.30;1.00;;;;;;4869959;29;20209;-70
2023/01/06 11:13:58;;;;;;;2.73;2.30;;;11.30;1.00;;;;;;4870607;29;20217;-69
2023/01/06 11:16:35;;;;;;;2.70;2.20;;;11.40;1.00;;;;;;4854476;29;20337;-70
2023/01/06 11:19:05;;;;;;;3.27;2.97;;;11.40;1.00;;;;;;4856472;29;20209;-71
2023/01/06 11:21:50;;;;;;;3.97;2.90;;;11.40;1.00;;;;;;4858659;29;20303;-70
2023/01/06 11:24:21;;;;;;;3.60;3.07;;;11.40;1.00;;;;;;4852332;29;20277;-69
2023/01/06 11:27:14;;;;;;;5.90;3.50;;;11.40;1.00;;;;;;4874768;29;20287;-69
2023/01/06 11:29:41;;;;;;;3.47;2.60;;;11.50;1.00;;;;;;4857943;29;20220;-68
2023/01/06 11:32:23;;;;;;;5.43;2.80;;;11.70;1.00;;;;;;4874648;29;20320;-69
2023/01/06 11:34:56;;;;;;;3.37;3.00;;;11.90;1.00;;;;;;4859211;29;20736;-69
2023/01/06 11:37:32;;;;;;;3.13;2.83;;;11.90;1.00;;;;;;4872778;29;20666;-69
2023/01/06 11:40:16;;;;;;;3.93;3.40;;;12.20;1.00;;;;;;4876686;29;20209;-68
2023/01/06 11:42:49;;;;;;;5.63;4.20;;;12.50;1.00;;;;;;4873128;29;20761;-68
2023/01/06 11:45:30;;;;;;;4.07;3.50;;;12.50;1.00;;;;;;4874500;29;20280;-69
2023/01/06 11:47:57;;;;;;;3.50;3.20;;;12.10;1.00;;;;;;4870283;29;20193;-71
2023/01/06 11:50:24;;;;;;;6.40;4.97;;;12.30;1.00;;;;;;4873826;29;20213;-72
2023/01/06 11:53:03;;;;;;;4.67;3.70;;;12.40;1.00;;;;;;4872431;29;20276;-68
2023/01/06 11:55:30;;;;;;;8.53;4.10;;;12.50;1.00;;;;;;4858144;29;20304;-69
2023/01/06 11:58:17;;;;;;;8.17;4.97;;;12.60;1.00;;;;;;4850208;29;20738;-70
2023/01/06 12:01:19;;;;;;;5.90;4.53;;;12.40;1.00;;;;;;4855350;29;20260;-71
2023/01/06 12:03:50;;;;;;;4.93;3.70;;;12.30;1.00;;;;;;4860696;29;20260;-69
2023/01/06 12:06:42;;;;;;;3.13;2.70;;;13.00;1.00;;;;;;4838822;29;20233;-69
2023/01/06 12:09:24;;;;;;;5.30;3.00;;;13.70;1.00;;;;;;4871768;29;20230;-70
2023/01/06 12:11:57;;;;;;;4.30;3.10;;;13.40;1.00;;;;;;4870309;29;20189;-69
2023/01/06 12:14:35;;;;;;;3.73;2.63;;;12.90;1.00;;;;;;4869560;29;20278;-71
2023/01/06 12:17:33;;;;;;;3.00;2.70;;;12.80;1.00;;;;;;4872672;29;20214;-73
2023/01/06 12:20:21;;;;;;;3.50;3.03;;;12.80;1.00;;;;;;4841585;29;20282;-69
2023/01/06 12:22:57;;;;;;;3.10;2.83;;;12.50;1.00;;;;;;4873053;29;20272;-71
2023/01/06 12:25:36;;;;;;;5.33;2.93;;;12.70;1.00;;;;;;4855035;29;20201;-70
2023/01/06 12:28:14;;;;;;;3.00;2.70;;;12.80;1.00;;;;;;4848265;29;20197;-69
2023/01/06 12:31:08;;;;;;;4.97;3.10;;;12.70;1.00;;;;;;4858792;29;20264;-69
2023/01/06 12:34:03;;;;;;;3.70;2.60;;;12.90;1.00;;;;;;4857652;29;20216;-70
2023/01/06 12:36:45;;;;;;;3.80;2.70;;;14.50;1.00;;;;;;4840081;29;20750;-69
2023/01/06 12:39:16;;;;;;;4.18;2.90;;;14.00;1.00;;;;;;4857916;29;20288;-69
2023/01/06 12:41:57;;;;;;;3.07;2.50;;;13.40;1.00;;;;;;4865451;29;20700;-69
2023/01/06 12:44:42;;;;;;;2.93;2.67;;;13.50;1.00;;;;;;4856997;29;20261;-68
2023/01/06 12:47:12;;;;;;;3.47;2.80;;;13.20;1.00;;;;;;4856462;29;20206;-69
2023/01/06 12:49:57;;;;;;;3.17;2.72;;;13.70;1.00;;;;;;4859017;29;20575;-72
2023/01/06 12:52:43;;;;;;;2.85;2.42;;;14.20;1.00;;;;;;4868084;29;20202;-69
2023/01/06 12:55:27;;;;;;;3.10;2.70;;;13.60;1.00;;;;;;4872428;29;20712;-69
2023/01/06 12:58:00;;;;;;;3.20;2.85;;;13.30;1.00;;;;;;4869922;29;20208;-68
2023/01/06 13:00:33;;;;;;;2.83;2.55;;;13.50;1.00;;;;;;4839233;29;20213;-69
2023/01/06 13:03:15;;;;;;;4.00;2.55;;;13.90;1.00;;;;;;4840301;29;20237;-71
2023/01/06 13:06:00;;;;;;;2.95;2.65;;;14.20;1.00;;;;;;4873872;29;20736;-74
2023/01/06 13:08:46;;;;;;;4.80;2.70;;;14.00;1.00;;;;;;4840068;29;20228;-69
2023/01/06 13:11:28;;;;;;;2.70;2.33;;;14.00;1.00;;;;;;4872328;29;20197;-69
2023/01/06 13:13:58;;;;;;;3.33;2.90;;;13.70;1.00;;;;;;4853375;29;20289;-70
2023/01/06 13:16:53;;;;;;;5.17;2.80;;;13.40;1.00;;;;;;4857955;29;20213;-72
2023/01/06 13:19:29;;;;;;;5.20;2.70;;;13.70;1.00;;;;;;4869532;29;20209;-70
2023/01/06 13:21:58;;;;;;;3.20;2.50;;;14.00;1.00;;;;;;4851111;29;20253;-70
2023/01/06 13:24:40;;;;;;;4.00;2.60;;;13.90;1.00;;;;;;4856568;29;20229;-69